Time;durP1;ratioP1;P1;durP2;ratioP2;P2;SDS_P1;SDS_P2;PMS_P1;PMS_P2;Temp;Humidity;BMP_temperature;BMP_pressure;BME280_temperature;BME280_humidity;BME280_pressure;Samples;Min_cycle;Max_cycle;Signal;HPM_P1;HPM_P2
2022/11/25 00:01:10;;;;;;;;;;;;;;;5.95;66.25;95334.03;5047241;28;20527;-75
2022/11/25 00:03:36;;;;;;;;;;;;;;;5.93;66.94;95330.06;5050914;28;20006;-76
2022/11/25 00:06:07;;;;;;;;;;;;;;;5.93;66.42;95332.69;5049467;28;20113;-76
2022/11/25 00:08:32;;;;;;;;;;;;;;;5.93;67.00;95338.75;5050320;28;20104;-75
2022/11/25 00:10:59;;;;;;;;;;;;;;;5.91;66.58;95334.78;5049677;28;20013;-76
2022/11/25 00:13:24;;;;;;;;;;;;;;;5.89;66.73;95335.06;5049288;28;20016;-76
2022/11/25 00:15:50;;;;;;;;;;;;;;;5.89;66.04;95342.22;5047767;28;20014;-75
2022/11/25 00:18:15;;;;;;;;;;;;;;;5.85;65.91;95339.31;5050162;28;20481;-76
2022/11/25 00:20:40;;;;;;;;;;;;;;;5.83;66.55;95330.06;5048552;28;20014;-75
2022/11/25 00:23:05;;;;;;;;;;;;;;;5.52;66.24;95332.78;5047049;28;20031;-76
2022/11/25 00:25:30;;;;;;;;;;;;;;;5.70;66.67;95324.31;5048335;28;20021;-76
2022/11/25 00:27:55;;;;;;;;;;;;;;;5.73;67.04;95326.41;5049804;28;20059;-74
2022/11/25 00:30:21;;;;;;;;;;;;;;;5.72;66.06;95326.66;5048449;28;20267;-75
2022/11/25 00:32:46;;;;;;;;;;;;;;;5.71;66.28;95327.72;5049957;28;20017;-76
2022/11/25 00:35:11;;;;;;;;;;;;;;;5.65;66.63;95328.81;5049030;28;20045;-75
2022/11/25 00:37:36;;;;;;;;;;;;;;;5.63;65.94;95329.06;5047266;28;20005;-75
2022/11/25 00:40:02;;;;;;;;;;;;;;;5.63;66.57;95331.72;5049605;28;20018;-76
2022/11/25 00:45:11;;;;;;;;;;;;;;;5.57;65.87;95337.25;5047192;28;20025;-74
2022/11/25 00:47:36;;;;;;;;;;;;;;;5.58;66.55;95333.53;5049709;28;20398;-75
2022/11/25 00:50:01;;;;;;;;;;;;;;;5.57;66.33;95340.69;5049802;28;20202;-73
2022/11/25 00:52:27;;;;;;;;;;;;;;;5.57;66.54;95343.31;5048229;28;20496;-74
2022/11/25 00:54:52;;;;;;;;;;;;;;;5.58;66.68;95337.00;5047763;28;20024;-73
2022/11/25 00:57:21;;;;;;;;;;;;;;;5.58;66.26;95344.91;5048079;28;20014;-74
2022/11/25 00:59:46;;;;;;;;;;;;;;;5.57;66.04;95337.25;5044185;28;20018;-75
2022/11/25 01:02:12;;;;;;;;;;;;;;;5.57;66.24;95332.75;5045734;28;20020;-73
2022/11/25 01:04:38;;;;;;;;;;;;;;;5.55;66.46;95329.63;5047929;28;20013;-73
2022/11/25 01:07:03;;;;;;;;;;;;;;;5.57;66.64;95327.47;5049665;28;20005;-73
2022/11/25 01:09:29;;;;;;;;;;;;;;;5.56;66.02;95323.28;5048992;28;20071;-74
2022/11/25 01:11:54;;;;;;;;;;;;;;;5.56;66.17;95323.28;5049161;28;20013;-74
2022/11/25 01:14:20;;;;;;;;;;;;;;;5.58;66.55;95323.00;5047619;28;20010;-74
2022/11/25 01:16:46;;;;;;;;;;;;;;;5.59;65.76;95312.19;5049226;28;20017;-74
2022/11/25 01:19:12;;;;;;;;;;;;;;;5.61;65.89;95310.06;5053463;28;20070;-75
2022/11/25 01:21:37;;;;;;;;;;;;;;;5.64;65.86;95308.75;5054165;28;20466;-74
2022/11/25 01:24:03;;;;;;;;;;;;;;;5.65;65.97;95316.41;5052123;28;20122;-74
2022/11/25 01:26:29;;;;;;;;;;;;;;;5.65;66.21;95310.31;5053208;28;20010;-74
2022/11/25 01:28:55;;;;;;;;;;;;;;;5.64;66.35;95314.81;5053275;28;20311;-74
2022/11/25 01:31:22;;;;;;;;;;;;;;;5.66;65.87;95315.31;5046492;28;20014;-75
2022/11/25 01:33:51;;;;;;;;;;;;;;;5.71;65.83;95322.44;5053192;28;20096;-73
2022/11/25 01:36:17;;;;;;;;;;;;;;;5.71;65.96;95320.59;5053421;28;20036;-73
2022/11/25 01:38:42;;;;;;;;;;;;;;;5.74;65.82;95322.72;5052757;28;20013;-75
2022/11/25 01:41:10;;;;;;;;;;;;;;;5.76;66.10;95319.78;5052846;28;20020;-74
2022/11/25 01:43:35;;;;;;;;;;;;;;;5.76;65.74;95319.00;5046832;28;20068;-73
2022/11/25 01:46:09;;;;;;;;;;;;;;;5.78;65.34;95330.06;5043985;28;20017;-75
2022/11/25 01:48:48;;;;;;;;;;;;;;;5.79;65.57;95316.63;5052843;28;20016;-75
2022/11/25 01:51:36;;;;;;;;;;;;;;;5.81;65.65;95311.06;5051600;28;20009;-74
2022/11/25 01:54:04;;;;;;;;;;;;;;;5.85;65.42;95312.91;5042749;28;20014;-74
2022/11/25 01:56:34;;;;;;;;;;;;;;;5.89;65.50;95321.09;5040209;28;20010;-75
2022/11/25 01:59:00;;;;;;;;;;;;;;;5.90;65.15;95312.88;5051350;28;20048;-75
2022/11/25 02:01:25;;;;;;;;;;;;;;;5.90;65.26;95310.25;5051723;28;20474;-73
2022/11/25 02:03:53;;;;;;;;;;;;;;;5.88;64.88;95311.56;5052467;28;20525;-74
2022/11/25 02:06:23;;;;;;;;;;;;;;;5.88;65.66;95315.00;5053561;28;20012;-75
2022/11/25 02:08:50;;;;;;;;;;;;;;;5.88;64.91;95306.28;5051154;28;20378;-75
2022/11/25 02:11:16;;;;;;;;;;;;;;;5.88;65.57;95299.16;5053121;28;20014;-74
2022/11/25 02:13:41;;;;;;;;;;;;;;;5.90;65.67;95306.81;5052345;28;20410;-74
2022/11/25 02:16:07;;;;;;;;;;;;;;;5.91;65.14;95303.13;5049121;28;20025;-73
2022/11/25 02:18:32;;;;;;;;;;;;;;;5.93;64.80;95301.00;5052420;28;20014;-73
2022/11/25 02:20:57;;;;;;;;;;;;;;;5.95;65.48;95304.19;5052443;28;20010;-74
2022/11/25 02:23:24;;;;;;;;;;;;;;;5.99;65.32;95299.97;5053063;28;20381;-75
2022/11/25 02:25:50;;;;;;;;;;;;;;;6.01;64.67;95297.81;5050584;28;20014;-75
2022/11/25 02:28:17;;;;;;;;;;;;;;;6.04;64.54;95302.59;5051718;28;20376;-75
2022/11/25 02:30:43;;;;;;;;;;;;;;;6.07;64.62;95301.22;5048830;28;20013;-75
2022/11/25 02:33:08;;;;;;;;;;;;;;;6.08;64.53;95292.25;5051493;28;20014;-75
2022/11/25 02:35:38;;;;;;;;;;;;;;;6.15;65.14;95298.03;5049566;28;20347;-75
2022/11/25 02:38:05;;;;;;;;;;;;;;;6.17;64.87;95293.25;5052625;28;20369;-75
2022/11/25 02:40:32;;;;;;;;;;;;;;;6.21;65.17;95313.59;5052118;28;20532;-75
2022/11/25 02:42:58;;;;;;;;;;;;;;;6.25;65.00;95311.97;5051592;28;20013;-75
2022/11/25 02:45:32;;;;;;;;;;;;;;;6.30;64.72;95308.53;5050675;28;20120;-74
2022/11/25 02:47:57;;;;;;;;;;;;;;;6.34;64.11;95306.13;5050043;28;20013;-75
2022/11/25 02:50:22;;;;;;;;;;;;;;;6.35;64.80;95307.72;5052521;28;20020;-75
2022/11/25 02:52:47;;;;;;;;;;;;;;;6.36;63.94;95307.44;5050289;28;20013;-75
2022/11/25 02:55:12;;;;;;;;;;;;;;;6.35;64.32;95307.72;5050252;28;20453;-75
2022/11/25 02:57:37;;;;;;;;;;;;;;;6.34;63.93;95314.81;5052362;28;20006;-73
2022/11/25 03:00:03;;;;;;;;;;;;;;;6.39;64.13;95314.78;5051041;28;20049;-74
2022/11/25 03:02:28;;;;;;;;;;;;;;;6.41;64.45;95322.47;5050895;28;20359;-75
2022/11/25 03:04:54;;;;;;;;;;;;;;;6.44;63.81;95316.63;5049019;28;20020;-76
2022/11/25 03:07:19;;;;;;;;;;;;;;;6.46;64.34;95314.53;5052843;28;20013;-75
2022/11/25 03:09:45;;;;;;;;;;;;;;;6.48;63.83;95304.44;5051390;28;20099;-75
2022/11/25 03:12:20;;;;;;;;;;;;;;;6.48;64.67;95304.44;5048801;28;20147;-74
2022/11/25 03:14:45;;;;;;;;;;;;;;;6.49;64.35;95303.38;5051921;28;20469;-74
2022/11/25 03:17:10;;;;;;;;;;;;;;;6.56;63.62;95306.53;5049118;28;20013;-73
2022/11/25 03:19:36;;;;;;;;;;;;;;;6.56;63.36;95306.53;5051896;28;20022;-74
2022/11/25 03:22:01;;;;;;;;;;;;;;;6.57;64.19;95308.09;5051019;28;20014;-74
2022/11/25 03:24:26;;;;;;;;;;;;;;;6.56;63.69;95306.53;5049508;28;20017;-75
2022/11/25 03:26:51;;;;;;;;;;;;;;;6.57;63.60;95302.81;5051358;28;20013;-74
2022/11/25 03:29:16;;;;;;;;;;;;;;;6.54;64.19;95306.00;5050833;28;20079;-74
2022/11/25 03:31:42;;;;;;;;;;;;;;;6.57;64.20;95300.19;5046931;28;20049;-74
2022/11/25 03:34:07;;;;;;;;;;;;;;;6.58;63.32;95303.59;5049371;28;20092;-74
2022/11/25 03:36:32;;;;;;;;;;;;;;;6.62;64.04;95305.44;5051297;28;20020;-74
2022/11/25 03:38:58;;;;;;;;;;;;;;;6.63;63.88;95312.28;5050000;28;20021;-75
2022/11/25 03:41:23;;;;;;;;;;;;;;;6.65;63.91;95310.16;5049012;28;20010;-75
2022/11/25 03:43:49;;;;;;;;;;;;;;;6.69;63.61;95313.03;5049137;28;20112;-74
2022/11/25 03:46:14;;;;;;;;;;;;;;;6.71;63.23;95309.06;5047743;28;20016;-74
2022/11/25 03:48:39;;;;;;;;;;;;;;;6.72;63.33;95297.44;5051385;28;20441;-75
2022/11/25 03:51:05;;;;;;;;;;;;;;;6.73;63.15;95296.34;5050588;28;20063;-74
2022/11/25 03:53:30;;;;;;;;;;;;;;;6.77;62.93;95302.69;5050596;28;20010;-75
2022/11/25 03:55:55;;;;;;;;;;;;;;;6.66;62.91;95316.25;5049607;28;20014;-74
2022/11/25 03:58:20;;;;;;;;;;;;;;;6.69;63.55;95318.31;5047288;28;20020;-75
2022/11/25 04:00:45;;;;;;;;;;;;;;;6.69;62.95;95324.41;5049018;28;20482;-74
2022/11/25 04:03:11;;;;;;;;;;;;;;;6.55;62.81;95320.78;5051235;28;20010;-74
2022/11/25 04:05:36;;;;;;;;;;;;;;;6.61;63.59;95319.72;5050228;28;20113;-74
2022/11/25 04:08:01;;;;;;;;;;;;;;;6.66;63.02;95322.31;5050828;28;20006;-74
2022/11/25 04:10:26;;;;;;;;;;;;;;;6.70;63.75;95333.91;5047625;28;20010;-75
2022/11/25 04:12:52;;;;;;;;;;;;;;;6.56;63.30;95322.38;5048319;28;20021;-74
2022/11/25 04:15:18;;;;;;;;;;;;;;;6.64;63.45;95326.28;5049110;28;20426;-75
2022/11/25 04:17:43;;;;;;;;;;;;;;;6.59;62.92;95319.19;5033948;28;20155;-75
2022/11/25 04:20:09;;;;;;;;;;;;;;;6.67;62.89;95323.91;5044452;28;20068;-74
2022/11/25 04:22:34;;;;;;;;;;;;;;;6.77;63.08;95318.53;5050096;28;20010;-73
2022/11/25 04:24:59;;;;;;;;;;;;;;;6.80;64.00;95317.19;5048272;28;20021;-75
2022/11/25 04:27:24;;;;;;;;;;;;;;;6.88;63.22;95321.13;5048909;28;20143;-73
2022/11/25 04:29:50;;;;;;;;;;;;;;;6.91;63.20;95328.47;5042443;28;20108;-74
2022/11/25 04:32:15;;;;;;;;;;;;;;;6.87;63.62;95338.06;5048365;28;20021;-74
2022/11/25 04:34:40;;;;;;;;;;;;;;;6.65;61.57;95344.50;5048603;28;20111;-74
2022/11/25 04:37:05;;;;;;;;;;;;;;;6.51;62.70;95340.91;5047562;28;20009;-73
2022/11/25 04:39:31;;;;;;;;;;;;;;;6.66;63.65;95332.91;5050046;28;20527;-73
2022/11/25 04:42:30;;;;;;;;;;;;;;;6.78;63.78;95333.34;5048453;28;20025;-74
2022/11/25 04:44:41;;;;;;;;;;;;;;;6.88;63.11;95335.13;5050317;28;20494;-72
2022/11/25 04:47:06;;;;;;;;;;;;;;;6.96;63.23;95339.03;5047717;28;20025;-74
2022/11/25 04:49:32;;;;;;;;;;;;;;;7.01;62.95;95337.16;5049806;28;20013;-74
2022/11/25 04:51:57;;;;;;;;;;;;;;;7.03;62.65;95339.53;5047481;28;20379;-74
2022/11/25 04:54:22;;;;;;;;;;;;;;;7.07;63.19;95337.91;5046779;28;20044;-75
2022/11/25 04:56:47;;;;;;;;;;;;;;;7.05;63.08;95334.72;5049770;28;20012;-73
2022/11/25 05:01:56;;;;;;;;;;;;;;;7.08;62.35;95325.47;5049626;28;20020;-74
2022/11/25 05:04:21;;;;;;;;;;;;;;;7.10;62.16;95320.69;5046524;28;20017;-73
2022/11/25 05:06:50;;;;;;;;;;;;;;;7.13;63.00;95328.06;5049269;28;20040;-74
2022/11/25 05:09:15;;;;;;;;;;;;;;;7.12;62.13;95323.84;5048139;28;20010;-75
2022/11/25 05:11:40;;;;;;;;;;;;;;;7.09;62.90;95341.06;5050339;28;20005;-75
2022/11/25 05:14:06;;;;;;;;;;;;;;;7.09;62.27;95327.81;5049368;28;20588;-74
2022/11/25 05:16:31;;;;;;;;;;;;;;;7.09;62.73;95335.75;5045977;28;20009;-74
2022/11/25 05:18:56;;;;;;;;;;;;;;;6.81;62.25;95291.53;5050301;28;20497;-74
2022/11/25 05:21:21;;;;;;;;;;;;;;;7.11;62.70;95336.25;5049382;28;20017;-76
2022/11/25 05:23:46;;;;;;;;;;;;;;;7.14;62.18;95324.34;5050296;28;20067;-74
2022/11/25 05:26:11;;;;;;;;;;;;;;;7.14;62.38;95334.94;5048550;28;20017;-74
2022/11/25 05:28:37;;;;;;;;;;;;;;;7.13;62.82;95328.84;5049396;28;20036;-74
2022/11/25 05:31:02;;;;;;;;;;;;;;;7.13;62.45;95334.16;5048577;28;20474;-74
2022/11/25 05:33:27;;;;;;;;;;;;;;;7.16;62.59;95335.44;5049174;28;20072;-70
2022/11/25 05:35:54;;;;;;;;;;;;;;;7.16;62.28;95341.50;5048308;28;20112;-69
2022/11/25 05:38:19;;;;;;;;;;;;;;;7.20;61.91;95336.47;5048420;28;20100;-71
2022/11/25 05:40:44;;;;;;;;;;;;;;;7.22;62.31;95340.44;5046060;28;20541;-68
2022/11/25 05:43:09;;;;;;;;;;;;;;;7.23;62.12;95331.41;5048168;28;20017;-72
2022/11/25 05:45:36;;;;;;;;;;;;;;;7.25;62.24;95339.06;5047313;28;20017;-67
2022/11/25 05:48:02;;;;;;;;;;;;;;;7.25;61.90;95323.97;5049049;28;20393;-70
2022/11/25 05:50:27;;;;;;;;;;;;;;;7.26;62.32;95338.00;5048407;28;20013;-76
2022/11/25 05:52:52;;;;;;;;;;;;;;;7.27;62.40;95345.69;5047606;28;20018;-69
2022/11/25 05:55:17;;;;;;;;;;;;;;;7.27;62.29;95353.63;5045419;28;20476;-69
2022/11/25 05:57:42;;;;;;;;;;;;;;;7.26;62.04;95357.31;5044548;28;20013;-68
2022/11/25 06:00:08;;;;;;;;;;;;;;;7.30;62.09;95358.34;5041308;28;20017;-68
2022/11/25 06:02:33;;;;;;;;;;;;;;;7.30;62.11;95365.50;5047002;28;20017;-67
2022/11/25 06:04:58;;;;;;;;;;;;;;;7.29;62.29;95350.69;5050996;28;20481;-68
2022/11/25 06:07:24;;;;;;;;;;;;;;;7.26;62.39;95352.00;5040706;28;20038;-68
2022/11/25 06:09:49;;;;;;;;;;;;;;;7.29;62.54;95350.69;5040342;28;20020;-69
2022/11/25 06:12:14;;;;;;;;;;;;;;;7.32;62.17;95349.31;5052228;28;20013;-70
2022/11/25 06:14:39;;;;;;;;;;;;;;;7.35;62.01;95351.44;5052581;28;20083;-72
2022/11/25 06:17:04;;;;;;;;;;;;;;;7.37;62.08;95349.28;5052315;28;20454;-72
2022/11/25 06:19:30;;;;;;;;;;;;;;;7.40;62.17;95354.03;5051252;28;20025;-70
2022/11/25 06:21:55;;;;;;;;;;;;;;;7.44;61.67;95347.13;5051111;28;20029;-71
2022/11/25 06:24:20;;;;;;;;;;;;;;;7.45;62.08;95341.53;5053245;28;20006;-71
2022/11/25 06:26:45;;;;;;;;;;;;;;;7.49;61.82;95333.84;5052611;28;20006;-69
2022/11/25 06:29:11;;;;;;;;;;;;;;;7.51;61.41;95339.63;5051177;28;20009;-70
2022/11/25 06:31:36;;;;;;;;;;;;;;;7.51;61.40;95343.06;5051767;28;20020;-71
2022/11/25 06:34:01;;;;;;;;;;;;;;;7.51;61.09;95347.56;5050880;28;20017;-70
2022/11/25 06:36:26;;;;;;;;;;;;;;;7.49;61.77;95345.22;5048922;28;20475;-70
2022/11/25 06:38:52;;;;;;;;;;;;;;;7.43;60.54;95346.34;5047804;28;20051;-70
2022/11/25 06:41:18;;;;;;;;;;;;;;;7.37;60.74;95344.81;5050286;28;20009;-70
2022/11/25 06:43:43;;;;;;;;;;;;;;;7.34;61.39;95352.50;5050444;28;20490;-70
2022/11/25 06:46:13;;;;;;;;;;;;;;;7.32;61.47;95354.63;5050488;28;20622;-71
2022/11/25 06:48:38;;;;;;;;;;;;;;;7.30;61.32;95365.50;5052082;28;20013;-69
2022/11/25 06:51:05;;;;;;;;;;;;;;;7.30;61.67;95358.34;5049240;28;20017;-69
2022/11/25 06:53:31;;;;;;;;;;;;;;;7.32;61.11;95355.44;5051279;28;20013;-69
2022/11/25 06:56:04;;;;;;;;;;;;;;;7.42;61.51;95352.69;5050710;28;20020;-69
2022/11/25 06:58:29;;;;;;;;;;;;;;;7.46;61.51;95350.28;5049272;28;20017;-69
2022/11/25 07:00:59;;;;;;;;;;;;;;;7.50;61.19;95351.31;5040317;28;20010;-70
2022/11/25 07:03:24;;;;;;;;;;;;;;;7.55;60.93;95349.38;5043951;28;20053;-70
2022/11/25 07:05:49;;;;;;;;;;;;;;;7.62;61.29;95351.69;5051507;28;20511;-69
2022/11/25 07:08:14;;;;;;;;;;;;;;;7.69;61.27;95362.78;5049530;28;20009;-70
2022/11/25 07:10:40;;;;;;;;;;;;;;;7.63;60.31;95361.25;5050867;28;20009;-70
2022/11/25 07:13:05;;;;;;;;;;;;;;;7.69;60.21;95369.94;5048770;28;20021;-70
2022/11/25 07:15:30;;;;;;;;;;;;;;;7.77;60.27;95367.44;5046585;28;20021;-69
2022/11/25 07:17:55;;;;;;;;;;;;;;;7.91;60.58;95361.50;5047316;28;20061;-70
2022/11/25 07:20:20;;;;;;;;;;;;;;;8.00;59.92;95360.59;5052201;28;20098;-70
2022/11/25 07:22:46;;;;;;;;;;;;;;;8.16;59.84;95363.06;5052092;28;20515;-70
2022/11/25 07:25:11;;;;;;;;;;;;;;;8.29;59.74;95360.53;5042376;28;20121;-70
2022/11/25 07:27:36;;;;;;;;;;;;;;;8.43;59.48;95365.16;5032684;28;20013;-70
2022/11/25 07:30:02;;;;;;;;;;;;;;;8.52;59.61;95368.75;5049088;28;20501;-71
2022/11/25 07:32:27;;;;;;;;;;;;;;;8.34;59.21;95328.69;5051625;28;20059;-70
2022/11/25 07:34:52;;;;;;;;;;;;;;;8.66;58.58;95361.69;5050360;28;20017;-70
2022/11/25 07:37:17;;;;;;;;;;;;;;;8.75;58.62;95372.44;5050937;28;20006;-70
2022/11/25 07:39:42;;;;;;;;;;;;;;;8.83;57.80;95366.50;5051334;28;20488;-71
2022/11/25 07:42:08;;;;;;;;;;;;;;;8.91;58.01;95365.88;5051276;28;20059;-70
2022/11/25 07:44:33;;;;;;;;;;;;;;;8.98;57.62;95370.78;5049385;28;20069;-71
2022/11/25 07:46:58;;;;;;;;;;;;;;;9.02;57.30;95369.94;5049641;28;20009;-70
2022/11/25 07:49:24;;;;;;;;;;;;;;;9.11;57.84;95367.44;5050614;28;20056;-70
2022/11/25 07:51:52;;;;;;;;;;;;;;;9.17;56.99;95371.56;5041371;28;20429;-71
2022/11/25 07:54:17;;;;;;;;;;;;;;;9.22;56.59;95376.03;5044888;28;20512;-70
2022/11/25 07:56:44;;;;;;;;;;;;;;;9.22;57.16;95384.00;5049740;28;20013;-70
2022/11/25 07:59:11;;;;;;;;;;;;;;;9.30;57.42;95378.78;5049370;28;20017;-69
2022/11/25 08:01:36;;;;;;;;;;;;;;;9.19;54.72;95397.81;5051111;28;20071;-71
2022/11/25 08:04:02;;;;;;;;;;;;;;;9.43;56.64;95395.88;5050252;28;20518;-71
2022/11/25 08:06:28;;;;;;;;;;;;;;;9.56;56.76;95386.34;5049838;28;20014;-71
2022/11/25 08:08:54;;;;;;;;;;;;;;;9.70;56.76;95384.53;5049785;28;20124;-70
2022/11/25 08:11:29;;;;;;;;;;;;;;;9.81;56.13;95385.91;5051240;28;20079;-70
2022/11/25 08:13:56;;;;;;;;;;;;;;;9.88;55.61;95380.25;5050946;28;20016;-71
2022/11/25 08:16:22;;;;;;;;;;;;;;;9.96;55.78;95373.44;5051127;28;20016;-72
2022/11/25 08:18:47;;;;;;;;;;;;;;;10.03;56.18;95373.84;5049622;28;20014;-71
2022/11/25 08:21:14;;;;;;;;;;;;;;;10.09;55.38;95370.81;5051391;28;20009;-71
2022/11/25 08:23:40;;;;;;;;;;;;;;;10.15;55.87;95377.59;5050086;28;20059;-71
2022/11/25 08:26:06;;;;;;;;;;;;;;;10.22;55.29;95381.72;5050926;28;20010;-70
2022/11/25 08:28:32;;;;;;;;;;;;;;;10.27;54.63;95377.13;5048155;28;20607;-71
2022/11/25 08:31:02;;;;;;;;;;;;;;;10.35;54.98;95370.34;5050623;28;20017;-71
2022/11/25 08:33:27;;;;;;;;;;;;;;;10.41;54.54;95367.28;5048347;28;20106;-70
2022/11/25 08:35:53;;;;;;;;;;;;;;;10.49;54.45;95365.78;5050167;28;20021;-71
2022/11/25 08:38:18;;;;;;;;;;;;;;;10.61;54.44;95381.25;5049234;28;20063;-70
2022/11/25 08:40:44;;;;;;;;;;;;;;;10.71;53.90;95378.38;5050290;28;20012;-70
2022/11/25 08:43:09;;;;;;;;;;;;;;;10.79;53.77;95390.97;5048352;28;20053;-71
2022/11/25 08:45:34;;;;;;;;;;;;;;;10.82;53.95;95398.38;5050158;28;20446;-71
2022/11/25 08:48:00;;;;;;;;;;;;;;;10.81;52.57;95404.00;5048788;28;20009;-70
2022/11/25 08:50:25;;;;;;;;;;;;;;;10.88;52.76;95404.38;5048220;28;20021;-71
2022/11/25 08:52:50;;;;;;;;;;;;;;;10.97;52.74;95425.75;5048783;28;20108;-70
2022/11/25 08:55:15;;;;;;;;;;;;;;;10.74;51.72;95420.34;5049960;28;20010;-70
2022/11/25 08:57:40;;;;;;;;;;;;;;;10.77;51.63;95427.75;5049111;28;20016;-71
2022/11/25 09:00:07;;;;;;;;;;;;;;;10.63;52.05;95437.59;5049386;28;20014;-71
2022/11/25 09:02:32;;;;;;;;;;;;;;;10.74;52.48;95424.88;5047409;28;20017;-71
2022/11/25 09:04:57;;;;;;;;;;;;;;;10.87;52.37;95432.06;5047553;28;20010;-71
2022/11/25 09:07:23;;;;;;;;;;;;;;;10.11;50.67;95445.72;5049121;28;20017;-71
2022/11/25 09:09:48;;;;;;;;;;;;;;;9.19;53.64;95445.59;5049166;28;20013;-72
2022/11/25 09:12:14;;;;;;;;;;;;;;;8.43;56.27;95455.28;5049235;28;20014;-72
2022/11/25 09:14:40;;;;;;;;;;;;;;;8.56;56.02;95458.06;5047048;28;20458;-72
2022/11/25 09:17:09;;;;;;;;;;;;;;;8.24;58.16;95457.84;5048375;28;21020;-72
2022/11/25 09:19:34;;;;;;;;;;;;;;;7.98;57.38;95465.25;5049314;28;20014;-71
2022/11/25 09:21:59;;;;;;;;;;;;;;;7.83;58.24;95466.19;5048713;28;20013;-72
2022/11/25 09:24:25;;;;;;;;;;;;;;;8.18;57.74;95469.56;5050217;28;20056;-72
2022/11/25 09:26:50;;;;;;;;;;;;;;;8.04;57.56;95464.16;5048167;28;20055;-71
2022/11/25 09:29:15;;;;;;;;;;;;;;;8.58;56.03;95460.41;5048366;28;20020;-73
2022/11/25 09:31:41;;;;;;;;;;;;;;;9.01;56.81;95468.41;5047492;28;20104;-71
2022/11/25 09:34:07;;;;;;;;;;;;;;;8.76;57.25;95464.22;5049284;28;20389;-72
2022/11/25 09:36:33;;;;;;;;;;;;;;;9.12;56.70;95451.28;5048322;28;20068;-72
2022/11/25 09:38:58;;;;;;;;;;;;;;;9.36;55.96;95457.28;5051077;28;20061;-71
2022/11/25 09:47:41;;;;;;;;;;;;;;;9.71;54.94;95457.81;5053699;28;20013;-72
2022/11/25 09:50:19;;;;;;;;;;;;;;;9.76;54.21;95463.03;5052750;28;20020;-72
2022/11/25 09:53:03;;;;;;;;;;;;;;;9.89;55.14;95461.53;5053337;28;20462;-71
2022/11/25 09:55:30;;;;;;;;;;;;;;;9.86;54.30;95459.44;5052950;28;20009;-72
2022/11/25 09:58:05;;;;;;;;;;;;;;;9.56;53.32;95471.31;5052785;28;20014;-71
2022/11/25 10:00:39;;;;;;;;;;;;;;;9.96;54.63;95467.25;5051329;28;20020;-71
2022/11/25 10:03:04;;;;;;;;;;;;;;;10.16;54.82;95458.91;5053411;28;20041;-71
2022/11/25 10:05:50;;;;;;;;;;;;;;;10.26;53.84;95460.63;5052127;28;20064;-71
2022/11/25 10:08:21;;;;;;;;;;;;;;;10.28;52.72;95457.69;5053223;28;20477;-71
2022/11/25 10:10:48;;;;;;;;;;;;;;;10.37;52.79;95463.91;5053211;28;20100;-70
2022/11/25 10:13:22;;;;;;;;;;;;;;;10.19;52.01;95464.75;5052506;28;20108;-72
2022/11/25 10:15:51;;;;;;;;;;;;;;;10.44;52.43;95453.69;5050882;28;20514;-72
2022/11/25 10:18:20;;;;;;;;;;;;;;;10.58;51.81;95464.31;5053257;28;20056;-71
2022/11/25 10:20:48;;;;;;;;;;;;;;;10.69;51.65;95460.34;5052168;28;20068;-70
2022/11/25 10:23:22;;;;;;;;;;;;;;;10.83;52.43;95460.34;5052920;28;20056;-69
2022/11/25 10:25:51;;;;;;;;;;;;;;;10.93;52.68;95462.81;5051054;28;20355;-71
2022/11/25 10:28:18;;;;;;;;;;;;;;;11.02;52.59;95465.56;5053050;28;20012;-70
2022/11/25 10:30:57;;;;;;;;;;;;;;;11.06;51.96;95463.91;5050662;28;20018;-69
2022/11/25 10:33:34;;;;;;;;;;;;;;;11.08;51.68;95467.81;5052800;28;20057;-70
2022/11/25 10:36:06;;;;;;;;;;;;;;;11.10;50.94;95468.31;5050136;28;20053;-69
2022/11/25 10:38:38;;;;;;;;;;;;;;;11.19;51.56;95471.84;5051800;28;20013;-68
2022/11/25 10:41:04;;;;;;;;;;;;;;;11.25;51.40;95474.38;5051939;28;20014;-70
2022/11/25 10:43:30;;;;;;;;;;;;;;;11.18;50.48;95466.81;5051204;28;20018;-69
2022/11/25 10:46:01;;;;;;;;;;;;;;;11.09;48.73;95463.28;5051449;28;20380;-68
2022/11/25 10:48:29;;;;;;;;;;;;;;;11.33;49.34;95465.69;5052791;28;20005;-71
2022/11/25 10:51:04;;;;;;;;;;;;;;;11.18;48.27;95464.94;5049135;28;20374;-68
2022/11/25 10:53:30;;;;;;;;;;;;;;;10.46;47.22;95405.50;5051485;28;20024;-68
2022/11/25 10:56:03;;;;;;;;;;;;;;;11.02;48.49;95460.25;5047336;28;20124;-68
2022/11/25 10:58:28;;;;;;;;;;;;;;;11.36;49.00;95465.91;5050984;28;20548;-68
2022/11/25 11:01:02;;;;;;;;;;;;;;;11.57;48.99;95460.13;5051131;28;20013;-69
2022/11/25 11:03:28;;;;;;;;;;;;;;;11.52;48.13;95454.91;5052347;28;20001;-71
2022/11/25 11:05:53;;;;;;;;;;;;;;;11.51;48.69;95456.75;5050919;28;20021;-71
2022/11/25 11:08:18;;;;;;;;;;;;;;;11.93;48.37;95458.19;5051075;28;20540;-69
2022/11/25 11:10:44;;;;;;;;;;;;;;;12.52;47.93;95459.91;5050705;28;20049;-71
2022/11/25 11:13:24;;;;;;;;;;;;;;;12.90;44.95;95458.31;5052066;28;20049;-69
2022/11/25 11:15:49;;;;;;;;;;;;;;;13.10;44.64;95448.91;5050911;28;20088;-68
2022/11/25 11:18:18;;;;;;;;;;;;;;;13.45;44.50;95447.09;5051764;28;20466;-68
2022/11/25 11:20:47;;;;;;;;;;;;;;;13.67;43.22;95450.72;5050899;28;20032;-69
2022/11/25 11:23:13;;;;;;;;;;;;;;;14.11;43.36;95451.44;5050313;28;20056;-67
2022/11/25 11:25:40;;;;;;;;;;;;;;;14.30;43.66;95444.63;5051342;28;20053;-69
2022/11/25 11:28:24;;;;;;;;;;;;;;;14.44;43.70;95438.28;5051887;28;20006;-77
2022/11/25 11:31:08;;;;;;;;;;;;;;;14.45;43.69;95446.00;5049261;28;20014;-69
2022/11/25 11:33:47;;;;;;;;;;;;;;;14.20;43.74;95447.66;5049502;28;20354;-68
2022/11/25 11:36:12;;;;;;;;;;;;;;;13.95;43.14;95449.25;5050248;28;20066;-69
2022/11/25 11:38:46;;;;;;;;;;;;;;;13.92;44.55;95452.59;5050247;28;20018;-69
2022/11/25 11:41:17;;;;;;;;;;;;;;;13.76;44.91;95454.16;5051477;28;20055;-70
2022/11/25 11:43:55;;;;;;;;;;;;;;;13.62;44.20;95450.88;5030685;28;20018;-72
2022/11/25 11:46:23;;;;;;;;;;;;;;;13.76;44.56;95444.25;5045338;28;20064;-73
2022/11/25 11:48:54;;;;;;;;;;;;;;;13.95;45.13;95446.59;5050660;28;20525;-72
2022/11/25 11:51:38;;;;;;;;;;;;;;;14.14;45.13;95440.13;5050680;28;20017;-73
2022/11/25 11:54:14;;;;;;;;;;;;;;;14.28;45.32;95441.50;5051324;28;20072;-72
2022/11/25 11:56:45;;;;;;;;;;;;;;;14.31;44.94;95442.72;5049676;28;20013;-70
2022/11/25 11:59:29;;;;;;;;;;;;;;;14.24;44.49;95434.41;5051655;28;20013;-83
2022/11/25 12:01:54;;;;;;;;;;;;;;;14.18;45.23;95441.06;5049131;28;20489;-73
2022/11/25 12:04:22;;;;;;;;;;;;;;;14.11;44.90;95435.38;5051539;28;20096;-72
2022/11/25 12:06:54;;;;;;;;;;;;;;;13.55;44.51;95431.84;5049661;28;20017;-70
2022/11/25 12:09:21;;;;;;;;;;;;;;;13.72;44.45;95439.88;5051188;28;20012;-71
2022/11/25 12:12:00;;;;;;;;;;;;;;;13.76;45.01;95441.56;5049827;28;20595;-72
2022/11/25 12:14:44;;;;;;;;;;;;;;;13.33;43.85;95440.81;5050127;28;20347;-72
2022/11/25 12:17:16;;;;;;;;;;;;;;;12.98;45.55;95438.06;5048222;28;20021;-70
2022/11/25 12:19:46;;;;;;;;;;;;;;;12.96;44.73;95435.72;5050654;28;20023;-70
2022/11/25 12:22:17;;;;;;;;;;;;;;;13.37;45.09;95429.19;5050116;28;20363;-71
2022/11/25 12:24:47;;;;;;;;;;;;;;;13.45;44.56;95424.94;5049237;28;20512;-72
2022/11/25 12:27:22;;;;;;;;;;;;;;;13.70;43.77;95431.38;5049174;28;20518;-72
2022/11/25 12:29:59;;;;;;;;;;;;;;;13.73;43.93;95425.41;5048902;28;20111;-73
2022/11/25 12:32:36;;;;;;;;;;;;;;;13.47;42.86;95428.88;5050892;28;20013;-73
2022/11/25 12:35:17;;;;;;;;;;;;;;;13.07;43.63;95422.84;5050639;28;20005;-73
2022/11/25 12:37:51;;;;;;;;;;;;;;;13.62;43.15;95429.50;5031124;28;20013;-73
2022/11/25 12:40:26;;;;;;;;;;;;;;;14.05;42.34;95432.09;5034759;28;20020;-73
2022/11/25 12:42:54;;;;;;;;;;;;;;;13.85;42.40;95428.19;5049536;28;20021;-73
2022/11/25 12:45:21;;;;;;;;;;;;;;;13.79;42.16;95429.47;5048376;28;20013;-73
2022/11/25 12:47:46;;;;;;;;;;;;;;;13.20;43.46;95429.91;5050680;28;20012;-73
2022/11/25 12:50:16;;;;;;;;;;;;;;;13.05;43.92;95432.25;5050102;28;20092;-73
2022/11/25 12:52:45;;;;;;;;;;;;;;;12.94;43.92;95429.88;5065409;28;20049;-73
2022/11/25 12:55:16;;;;;;;;;;;;;;;13.33;44.01;95435.47;5049540;28;20018;-74
2022/11/25 12:57:41;;;;;;;;;;;;;;;13.72;42.88;95434.53;5050482;28;20104;-73
2022/11/25 13:00:24;;;;;;;;;;;;;;;13.27;43.77;95429.50;5050367;28;20450;-73
2022/11/25 13:03:22;;;;;;;;;;;;;;;13.12;43.83;95432.59;5032829;28;20517;-73
2022/11/25 13:05:56;;;;;;;;;;;;;;;13.34;43.73;95431.69;5047921;28;20143;-74